Latest Weather Observations for Albury

IDV60801

Issued at 8:12 am EST Saturday 24 August 2019 (issued every 10 minutes, with the page automatically refreshed every 10 minutes)

About weather observations | Map of weather stations | Latest weather observations for VIC | Other Formats
Station Details ID: 072160 Name: ALBURY AIRPORT AWS Lat: -36.07 Lon: 146.95 Height: 163.5 m
Data from the previous 72 hours. | See also: Recent months at Albury
Date/Time
EST
Temp
°C
App
Temp
°C
Dew
Point
°C
Rel
Hum
%
Delta-T
°C
Wind Press
QNH
hPa
Press
MSL
hPa
Rain since
9am
mm
Dir  Spd
km/h
Gust
km/h
Spd
kts
Gust
kts
24/08:00am 2.7 0.9 1.2 90 0.6 CALM 0 0 0 0 1021.6 1021.9 0.0
24/07:30am 1.2 -0.7 0.3 94 0.3 CALM 0 0 0 0 1021.7 1022.0 0.0
24/07:00am 0.5 -1.5 -0.4 94 0.3 CALM 0 0 0 0 1021.7 1022.0 0.0
24/06:30am 0.2 -3.0 -0.6 94 0.3 NW 6 9 3 5 1021.8 1022.1 0.0
24/06:00am 0.0 -3.3 -1.0 93 0.4 NNW 6 7 3 4 1021.9 1022.2 0.0
24/05:30am 0.3 -3.1 -0.8 92 0.4 NNW 7 7 4 4 1021.8 1022.1 0.0
24/05:00am 0.4 -2.8 -0.6 93 0.4 NNW 6 7 3 4 1021.8 1022.1 0.0
24/04:30am 0.6 -2.8 -0.3 94 0.3 WNW 7 9 4 5 1021.9 1022.2 0.0
24/04:00am 0.3 -3.2 -1.0 91 0.5 NNE 7 9 4 5 1021.9 1022.2 0.0
24/03:30am 1.7 -0.2 0.7 93 0.4 CALM 0 0 0 0 1022.2 1022.4 0.0
24/03:00am 0.8 -1.2 -0.3 92 0.4 CALM 0 0 0 0 1022.4 1022.6 0.0
24/02:30am 1.1 -0.9 -0.1 92 0.4 CALM 0 0 0 0 1022.4 1022.6 0.0
24/02:00am 1.1 -0.9 -0.2 91 0.5 CALM 0 0 0 0 1022.6 1022.8 0.0
24/01:30am 2.0 0.1 0.7 91 0.5 CALM 0 0 0 0 1022.7 1022.9 0.0
24/01:00am 2.0 -1.2 0.7 91 0.5 NNW 7 9 4 5 1022.9 1023.1 0.0
24/12:30am 2.2 0.0 0.9 91 0.5 N 2 7 1 4 1023.1 1023.3 0.0
24/12:00am 2.8 1.0 1.5 91 0.5 CALM 0 0 0 0 1023.7 1024.0 0.0
 
Date/Time
EST
Temp
°C
App
Temp
°C
Dew
Point
°C
Rel
Hum
%
Delta-T
°C
Wind Press
QNH
hPa
Press
MSL
hPa
Rain since
9am
mm
Dir  Spd
km/h
Gust
km/h
Spd
kts
Gust
kts
23/11:30pm 3.0 1.2 1.5 90 0.6 CALM 0 0 0 0 1023.8 1024.1 0.0
23/11:00pm 3.7 2.1 2.2 90 0.6 CALM 0 0 0 0 1023.9 1024.2 0.0
23/10:30pm 3.4 1.6 1.3 86 0.8 CALM 0 0 0 0 1024.1 1024.4 0.0
23/10:00pm 4.4 2.4 2.1 85 0.9 E 2 7 1 4 1024.2 1024.5 0.0
23/09:30pm 4.7 2.0 2.4 85 0.9 E 6 7 3 4 1024.4 1024.7 0.0
23/09:00pm 4.7 2.0 2.7 87 0.8 E 6 9 3 5 1024.6 1024.9 0.0
23/08:30pm 5.0 3.6 3.3 89 0.7 CALM 0 0 0 0 1024.5 1024.8 0.0
23/08:00pm 6.2 4.8 3.4 82 1.2 CALM 0 0 0 0 1024.1 1024.4 0.0
23/07:30pm 6.7 5.2 3.1 78 1.5 CALM 0 0 0 0 1024.2 1024.5 0.0
23/07:00pm 7.5 6.0 3.2 74 1.8 CALM 0 0 0 0 1024.2 1024.5 0.0
23/06:30pm 8.9 6.3 3.3 68 2.4 ENE 6 7 3 4 1024.0 1024.3 0.0
23/06:00pm 10.5 7.9 3.1 60 3.2 E 6 7 3 4 1024.1 1024.4 0.0
23/05:30pm 12.2 8.6 3.2 54 4.0 E 11 13 6 7 1023.8 1024.1 0.0
23/05:00pm 12.8 9.3 3.5 53 4.2 ENE 11 15 6 8 1023.9 1024.2 0.0
23/04:30pm 13.4 9.8 2.9 49 4.7 NE 11 15 6 8 1024.0 1024.3 0.0
23/04:00pm 13.7 10.0 2.3 46 5.0 NE 11 19 6 10 1024.2 1024.5 0.0
23/03:30pm 13.6 10.1 1.3 43 5.3 NE 9 13 5 7 1024.4 1024.7 0.0
23/03:00pm 13.8 10.1 2.1 45 5.1 NE 11 19 6 10 1024.6 1024.9 0.0
23/02:30pm 13.7 10.2 1.4 43 5.3 ENE 9 13 5 7 1024.9 1025.2 0.0
23/02:00pm 13.3 10.0 0.3 41 5.5 NE 7 13 4 7 1025.4 1025.7 0.0
23/01:30pm 13.4 9.9 1.1 43 5.3 NNW 9 15 5 8 1025.7 1026.0 0.0
23/01:00pm 13.4 11.0 2.0 46 5.0 NNW 4 9 2 5 1026.1 1026.4 0.0
23/12:30pm 12.8 10.1 2.9 51 4.4 ENE 6 13 3 7 1026.3 1026.6 0.0
23/12:00pm 11.7 8.4 2.2 52 4.1 ESE 9 13 5 7 1026.9 1027.2 0.0
23/11:30am 11.1 7.8 2.2 54 3.8 ESE 9 13 5 7 1027.4 1027.7 0.0
23/11:00am 9.9 6.9 3.9 66 2.6 SE 9 13 5 7 1027.7 1028.0 0.0
23/10:30am 8.7 6.1 3.1 68 2.4 SE 6 11 3 6 1027.9 1028.2 0.0
23/10:00am 7.6 4.3 2.5 70 2.1 ESE 9 11 5 6 1027.9 1028.2 0.0
23/09:30am 6.8 3.8 2.1 72 1.9 ESE 7 11 4 6 1027.9 1028.2 0.0
23/09:00am 5.9 3.1 1.8 75 1.7 ESE 6 9 3 5 1027.8 1028.1 0.0
23/08:30am 4.9 2.4 1.4 78 1.4 ENE 4 6 2 3 1027.8 1028.1 0.0
23/08:00am 2.0 0.0 0.1 87 0.7 CALM 0 0 0 0 1027.6 1027.9 0.0
23/07:30am 0.6 -2.6 -0.5 92 0.4 NNE 6 9 3 5 1027.3 1027.6 0.0
23/07:00am -0.5 -2.7 -1.6 92 0.4 CALM 0 0 0 0 1026.7 1027.0 0.0
23/06:30am 0.0 -2.9 -1.1 92 0.4 NE 4 7 2 4 1026.3 1026.6 0.0
23/06:00am -0.2 -3.5 -1.5 91 0.4 N 6 7 3 4 1025.8 1026.1 0.0
23/05:30am 0.0 -2.5 -1.3 91 0.5 NW 2 7 1 4 1025.2 1025.5 0.0
23/05:00am 0.2 -2.3 -1.2 90 0.5 NW 2 6 1 3 1024.9 1025.2 0.0
23/04:30am 0.7 -1.4 -0.6 91 0.5 CALM 0 0 0 0 1024.9 1025.2 0.0
23/04:00am 1.0 -2.2 -0.3 91 0.5 NNW 6 9 3 5 1025.0 1025.3 0.0
23/03:30am 0.8 -1.3 -0.6 90 0.5 CALM 0 0 0 0 1024.8 1025.1 0.0
23/03:00am 1.5 -0.8 0.3 92 0.4 S 2 6 1 3 1024.8 1025.1 0.0
23/02:30am 1.1 -1.2 0.1 93 0.4 NNE 2 7 1 4 1024.8 1025.1 0.0
23/02:00am 1.9 0.0 0.7 92 0.4 CALM 0 0 0 0 1024.9 1025.2 0.0
23/01:30am 2.2 0.3 0.6 89 0.6 CALM 0 0 0 0 1025.0 1025.3 0.0
23/01:00am 2.6 0.8 1.1 90 0.6 CALM 0 0 0 0 1025.0 1025.3 0.0
23/12:30am 3.0 0.8 1.1 87 0.7 NW 2 7 1 4 1025.0 1025.3 0.0
23/12:00am 3.6 1.9 2.1 90 0.6 CALM 0 2 0 1 1024.9 1025.2 0.0
 
Date/Time
EST
Temp
°C
App
Temp
°C
Dew
Point
°C
Rel
Hum
%
Delta-T
°C
Wind Press
QNH
hPa
Press
MSL
hPa
Rain since
9am
mm
Dir  Spd
km/h
Gust
km/h
Spd
kts
Gust
kts
22/11:30pm 3.5 1.7 1.5 87 0.8 CALM 0 0 0 0 1024.9 1025.2 0.0
22/11:00pm 3.7 2.0 1.6 86 0.8 CALM 0 0 0 0 1024.9 1025.2 0.0
22/10:30pm 4.3 2.5 1.2 80 1.2 CALM 0 0 0 0 1024.9 1025.2 0.0
22/10:00pm 5.9 4.0 2.7 80 1.3 SSE 2 7 1 4 1024.9 1025.2 0.0
22/09:30pm 5.2 3.4 1.1 75 1.6 CALM 0 0 0 0 1024.5 1024.8 0.0
22/09:00pm 7.1 4.4 2.4 72 1.9 W 6 9 3 5 1024.3 1024.6 0.0
22/08:30pm 7.8 4.8 1.9 66 2.4 WSW 7 9 4 5 1024.1 1024.4 0.0
22/08:00pm 9.3 6.0 2.2 61 3.0 S 9 17 5 9 1023.7 1024.0 0.0
22/07:30pm 9.7 4.8 2.1 59 3.2 WSW 17 24 9 13 1023.3 1023.5 0.0
22/07:00pm 10.3 4.4 1.9 56 3.6 WSW 22 32 12 17 1022.8 1023.0 0.0
22/06:30pm 10.8 5.3 1.9 54 3.8 WSW 20 32 11 17 1022.3 1022.5 0.0
22/06:00pm 11.1 5.7 2.2 54 3.8 WSW 20 30 11 16 1021.7 1022.0 0.0
22/05:30pm 11.9 6.2 2.6 53 4.1 WSW 22 32 12 17 1021.2 1021.5 0.0
22/05:00pm 12.6 6.3 3.8 55 4.0 W 26 37 14 20 1020.8 1021.1 0.0
22/04:30pm 13.7 7.2 2.9 48 4.8 WSW 26 37 14 20 1020.3 1020.6 0.0
22/04:00pm 14.3 8.0 3.5 48 4.9 SW 26 35 14 19 1019.9 1020.2 0.0
22/03:30pm 14.1 6.5 3.0 47 5.0 WSW 32 44 17 24 1019.6 1019.9 0.0
22/03:00pm 14.7 8.1 2.3 43 5.5 SW 26 37 14 20 1019.4 1019.7 0.0
22/02:30pm 14.6 7.7 2.5 44 5.4 WSW 28 43 15 23 1019.4 1019.7 0.0
22/02:00pm 14.7 7.5 2.9 45 5.3 WSW 30 43 16 23 1019.1 1019.4 0.0
22/01:30pm 14.8 7.9 2.4 43 5.6 WSW 28 41 15 22 1019.1 1019.4 0.0
22/01:00pm 14.3 6.9 1.6 42 5.6 WSW 30 41 16 22 1019.1 1019.4 0.0
22/12:30pm 14.1 6.6 1.4 42 5.5 SW 30 43 16 23 1019.3 1019.6 0.0
22/12:00pm 13.7 6.3 1.7 44 5.2 WSW 30 46 16 25 1019.4 1019.7 0.0
22/11:30am 14.0 7.3 1.6 43 5.4 WSW 26 37 14 20 1019.4 1019.7 0.0
22/11:17am 13.9 6.8 1.5 43 5.4 SW 28 48 15 26 1019.4 1019.7 0.0
22/11:00am 14.2 8.6 3.7 49 4.8 WSW 22 35 12 19 1019.5 1019.8 0.0
22/10:30am 13.3 5.8 3.4 51 4.5 WSW 32 44 17 24 1019.0 1019.3 0.0
22/10:00am 12.9 6.3 4.3 56 3.9 WSW 28 37 15 20 1018.6 1018.9 0.0
22/09:30am 12.7 6.6 4.7 58 3.7 WSW 26 37 14 20 1018.4 1018.7 0.0
22/09:00am 12.2 6.6 5.4 63 3.2 WSW 24 33 13 18 1018.2 1018.4 0.0
22/08:30am 11.4 5.5 5.7 68 2.7 WSW 26 37 14 20 1017.7 1017.9 0.0
22/08:00am 10.8 5.5 6.6 75 2.0 WSW 24 32 13 17 1017.5 1017.7 0.0
22/07:30am 10.2 5.9 7.1 81 1.5 W 19 26 10 14 1017.5 1017.7 0.0
22/07:00am 10.2 5.5 7.6 84 1.3 WNW 22 30 12 16 1017.1 1017.3 0.0
22/06:57am 10.2 5.5 7.6 84 1.3 WNW 22 30 12 16 1017.0 1017.2 0.0
22/06:30am 10.4 6.3 7.8 84 1.3 W 19 26 10 14 1016.8 1017.0 0.0
22/06:00am 10.5 6.4 7.9 84 1.3 W 19 28 10 15 1016.3 1016.5 0.0
22/05:30am 10.6 5.6 8.0 84 1.3 W 24 33 13 18 1016.2 1016.4 0.0
22/05:00am 10.6 5.6 8.0 84 1.3 W 24 37 13 20 1015.9 1016.1 0.0
22/04:30am 10.6 5.2 7.8 83 1.4 W 26 39 14 21 1015.6 1015.9 0.0
22/04:04am 10.8 4.6 7.9 82 1.4 WNW 30 48 16 26 1015.4 1015.7 0.0
22/04:00am 10.8 4.2 7.7 81 1.5 W 32 48 17 26 1015.4 1015.7 0.0
22/03:30am 10.6 4.0 7.8 83 1.4 WNW 32 46 17 25 1015.6 1015.9 0.0
22/03:00am 10.7 4.5 7.9 83 1.4 WNW 30 41 16 22 1016.2 1016.4 0.0
22/02:30am 10.8 4.0 7.9 82 1.4 WNW 33 52 18 28 1016.5 1016.7 0.0
22/02:22am 10.8 4.2 7.9 82 1.4 WNW 32 52 17 28 1016.4 1016.6 0.0
22/02:09am 10.7 4.1 7.8 82 1.4 WNW 32 46 17 25 1016.5 1016.7 0.0
22/02:00am 10.9 4.4 8.0 82 1.4 WNW 32 41 17 22 1016.7 1016.9 0.0
22/01:30am 10.8 5.0 7.9 82 1.4 WNW 28 39 15 21 1016.8 1017.0 0.0
22/01:00am 11.1 4.9 8.0 81 1.5 WNW 30 39 16 21 1017.3 1017.5 0.0
22/12:30am 11.4 6.0 7.9 79 1.7 WNW 26 33 14 18 1017.4 1017.6 0.0
22/12:00am 11.4 5.3 8.1 80 1.6 W 30 43 16 23 1017.5 1017.7 0.0
 
Date/Time
EST
Temp
°C
App
Temp
°C
Dew
Point
°C
Rel
Hum
%
Delta-T
°C
Wind Press
QNH
hPa
Press
MSL
hPa
Rain since
9am
mm
Dir  Spd
km/h
Gust
km/h
Spd
kts
Gust
kts
21/11:30pm 11.6 6.2 7.9 78 1.8 WNW 26 33 14 18 1017.6 1017.8 0.0
21/11:00pm 12.0 6.5 7.5 74 2.2 WNW 26 37 14 20 1018.0 1018.2 0.0
21/10:30pm 11.8 6.6 7.1 73 2.3 W 24 39 13 21 1017.9 1018.1 0.0
21/10:00pm 12.1 7.2 6.8 70 2.5 WNW 22 32 12 17 1018.3 1018.5 0.0
21/09:30pm 12.3 6.9 6.4 67 2.8 W 24 32 13 17 1018.5 1018.8 0.0
21/09:00pm 12.5 7.5 6.5 67 2.9 WNW 22 28 12 15 1018.5 1018.8 0.0
21/08:30pm 12.6 7.5 6.2 65 3.1 WNW 22 30 12 16 1018.3 1018.5 0.0
21/08:00pm 12.8 8.1 6.2 64 3.1 WNW 20 26 11 14 1018.5 1018.8 0.0
21/07:30pm 13.1 8.3 5.8 61 3.5 WNW 20 28 11 15 1018.7 1019.0 0.0
21/07:00pm 13.3 7.7 5.5 59 3.7 W 24 35 13 19 1018.4 1018.7 0.0
21/06:30pm 13.3 7.3 5.2 58 3.8 W 26 35 14 19 1018.2 1018.4 0.0
21/06:00pm 13.5 7.6 5.9 60 3.6 W 26 35 14 19 1018.3 1018.5 0.0
21/05:30pm 14.3 9.7 6.6 60 3.8 W 20 33 11 18 1018.0 1018.2 0.0
21/05:00pm 14.4 9.0 6.5 59 3.8 W 24 35 13 19 1017.5 1017.7 0.0
21/04:30pm 15.2 10.0 7.3 59 3.9 W 24 35 13 19 1017.3 1017.5 0.0
21/04:00pm 15.7 10.9 7.5 58 4.1 W 22 33 12 18 1017.7 1017.9 0.0
21/03:30pm 14.5 9.5 8.0 65 3.3 W 24 35 13 19 1017.8 1018.0 0.0
21/03:00pm 14.4 10.9 8.6 68 2.9 W 17 26 9 14 1018.1 1018.3 0.0
21/02:30pm 14.8 9.6 7.1 60 3.8 W 24 33 13 18 1017.9 1018.1 0.0
21/02:00pm 16.2 9.6 7.7 57 4.3 W 32 44 17 24 1018.1 1018.3 0.0
21/01:30pm 16.6 11.8 8.8 60 4.0 W 24 33 13 18 1018.4 1018.7 0.0
21/01:00pm 15.3 9.6 8.3 63 3.6 W 28 39 15 21 1018.9 1019.2 0.0
21/12:30pm 15.7 9.9 8.0 60 3.9 W 28 37 15 20 1018.9 1019.2 0.0
21/12:00pm 15.1 10.3 9.0 67 3.1 W 24 37 13 20 1019.3 1019.6 0.0
21/11:30am 14.2 9.7 10.2 77 2.1 WNW 24 33 13 18 1019.5 1019.8 0.0
21/11:00am 13.7 8.0 9.9 78 2.0 W 30 41 16 22 1019.9 1020.2 0.0
21/10:33am 12.7 8.2 9.9 83 1.4 W 24 35 13 19 1020.1 1020.4 0.0
21/10:30am 12.4 7.4 9.4 82 1.5 W 26 37 14 20 1020.1 1020.4 0.0
21/10:00am 12.0 6.2 9.6 85 1.2 WNW 30 41 16 22 1020.0 1020.3 0.0
21/09:30am 11.8 6.0 9.4 85 1.2 W 30 43 16 23 1019.7 1020.0 0.0
21/09:00am 10.8 4.4 8.6 86 1.1 W 32 44 17 24 1019.7 1020.0 0.2
21/08:55am 10.7 4.7 8.6 87 1.0 W 30 44 16 24 1019.6 1019.9 0.2
21/08:35am 10.4 5.1 8.5 88 0.9 W 26 35 14 19 1019.6 1019.9 0.2
21/08:30am 10.5 5.6 8.6 88 0.9 W 24 35 13 19 1019.7 1020.0 0.2

Other formats

Comma delimited format used in spreadsheet applications
http://www.bom.gov.au/fwo/IDV60801/IDV60801.95896.axf

JavaScript Object Notation format (JSON) in row-major order
http://www.bom.gov.au/fwo/IDV60801/IDV60801.95896.json

Data quality

Most of these data are generated automatically and are frequently updated. Quality checks on data are not normally performed. It is possible for incorrect values to appear. Refer to information at About Latest Weather Observations and please check the disclaimer before using these data.